sensor_id;sensor_type;location;lat;lon;timestamp;P1;durP1;ratioP1;P2;durP2;ratioP2
17390;SDS011;8813;54.444;18.446;2022-12-18T00:00:43;51.47;;;23.43;;
17390;SDS011;8813;54.444;18.446;2022-12-18T00:03:12;50.87;;;23.33;;
17390;SDS011;8813;54.444;18.446;2022-12-18T00:05:45;44.47;;;21.00;;
17390;SDS011;8813;54.444;18.446;2022-12-18T00:08:12;51.50;;;20.93;;
17390;SDS011;8813;54.444;18.446;2022-12-18T00:10:40;49.53;;;21.10;;
17390;SDS011;8813;54.444;18.446;2022-12-18T00:13:07;43.30;;;20.30;;
17390;SDS011;8813;54.444;18.446;2022-12-18T00:15:36;55.77;;;20.93;;
17390;SDS011;8813;54.444;18.446;2022-12-18T00:18:03;67.30;;;22.60;;
17390;SDS011;8813;54.444;18.446;2022-12-18T00:20:30;65.03;;;21.10;;
17390;SDS011;8813;54.444;18.446;2022-12-18T00:22:57;95.70;;;22.50;;
17390;SDS011;8813;54.444;18.446;2022-12-18T00:25:24;97.17;;;22.77;;
17390;SDS011;8813;54.444;18.446;2022-12-18T00:27:51;72.80;;;21.00;;
17390;SDS011;8813;54.444;18.446;2022-12-18T00:30:18;100.70;;;20.73;;
17390;SDS011;8813;54.444;18.446;2022-12-18T00:32:46;66.23;;;19.73;;
17390;SDS011;8813;54.444;18.446;2022-12-18T00:35:13;63.93;;;21.27;;
17390;SDS011;8813;54.444;18.446;2022-12-18T00:37:40;62.47;;;20.13;;
17390;SDS011;8813;54.444;18.446;2022-12-18T00:40:07;48.83;;;20.30;;
17390;SDS011;8813;54.444;18.446;2022-12-18T00:42:35;45.30;;;20.43;;
17390;SDS011;8813;54.444;18.446;2022-12-18T00:45:20;48.27;;;19.80;;
17390;SDS011;8813;54.444;18.446;2022-12-18T00:47:53;49.60;;;19.93;;
17390;SDS011;8813;54.444;18.446;2022-12-18T00:50:21;49.73;;;19.83;;
17390;SDS011;8813;54.444;18.446;2022-12-18T00:52:48;52.70;;;21.60;;
17390;SDS011;8813;54.444;18.446;2022-12-18T00:55:15;50.90;;;20.60;;
17390;SDS011;8813;54.444;18.446;2022-12-18T00:57:42;54.90;;;20.83;;
17390;SDS011;8813;54.444;18.446;2022-12-18T01:00:10;42.17;;;18.37;;
17390;SDS011;8813;54.444;18.446;2022-12-18T01:02:38;43.50;;;20.27;;
17390;SDS011;8813;54.444;18.446;2022-12-18T01:05:07;52.60;;;21.97;;
17390;SDS011;8813;54.444;18.446;2022-12-18T01:07:34;45.87;;;19.90;;
17390;SDS011;8813;54.444;18.446;2022-12-18T01:10:02;48.93;;;20.83;;
17390;SDS011;8813;54.444;18.446;2022-12-18T01:12:29;43.33;;;19.60;;
17390;SDS011;8813;54.444;18.446;2022-12-18T01:14:56;55.53;;;26.50;;
17390;SDS011;8813;54.444;18.446;2022-12-18T01:17:23;92.30;;;41.70;;
17390;SDS011;8813;54.444;18.446;2022-12-18T01:19:50;56.07;;;26.47;;
17390;SDS011;8813;54.444;18.446;2022-12-18T01:22:18;63.87;;;27.77;;
17390;SDS011;8813;54.444;18.446;2022-12-18T01:24:45;55.97;;;23.73;;
17390;SDS011;8813;54.444;18.446;2022-12-18T01:27:12;52.57;;;24.50;;
17390;SDS011;8813;54.444;18.446;2022-12-18T01:29:39;57.97;;;23.10;;
17390;SDS011;8813;54.444;18.446;2022-12-18T01:32:06;60.00;;;24.60;;
17390;SDS011;8813;54.444;18.446;2022-12-18T01:34:33;70.93;;;29.20;;
17390;SDS011;8813;54.444;18.446;2022-12-18T01:37:02;53.77;;;24.00;;
17390;SDS011;8813;54.444;18.446;2022-12-18T01:39:30;63.30;;;28.47;;
17390;SDS011;8813;54.444;18.446;2022-12-18T01:41:58;64.33;;;27.73;;
17390;SDS011;8813;54.444;18.446;2022-12-18T01:47:25;63.90;;;25.03;;
17390;SDS011;8813;54.444;18.446;2022-12-18T01:49:54;62.33;;;24.33;;
17390;SDS011;8813;54.444;18.446;2022-12-18T01:52:22;51.27;;;23.20;;
17390;SDS011;8813;54.444;18.446;2022-12-18T01:54:50;56.27;;;21.63;;
17390;SDS011;8813;54.444;18.446;2022-12-18T01:57:17;51.60;;;21.87;;
17390;SDS011;8813;54.444;18.446;2022-12-18T01:59:45;45.93;;;20.43;;
17390;SDS011;8813;54.444;18.446;2022-12-18T02:02:14;53.27;;;24.50;;
17390;SDS011;8813;54.444;18.446;2022-12-18T02:04:42;66.07;;;28.03;;
17390;SDS011;8813;54.444;18.446;2022-12-18T02:07:10;49.83;;;21.73;;
17390;SDS011;8813;54.444;18.446;2022-12-18T02:09:44;48.30;;;20.87;;
17390;SDS011;8813;54.444;18.446;2022-12-18T02:12:16;43.57;;;20.70;;
17390;SDS011;8813;54.444;18.446;2022-12-18T02:14:45;45.27;;;20.23;;
17390;SDS011;8813;54.444;18.446;2022-12-18T02:17:16;41.70;;;20.70;;
17390;SDS011;8813;54.444;18.446;2022-12-18T02:19:47;44.60;;;20.10;;
17390;SDS011;8813;54.444;18.446;2022-12-18T02:22:27;43.40;;;20.57;;
17390;SDS011;8813;54.444;18.446;2022-12-18T02:25:01;42.27;;;20.80;;
17390;SDS011;8813;54.444;18.446;2022-12-18T02:27:36;41.20;;;20.00;;
17390;SDS011;8813;54.444;18.446;2022-12-18T02:30:04;50.17;;;21.53;;
17390;SDS011;8813;54.444;18.446;2022-12-18T02:32:34;49.67;;;25.17;;
17390;SDS011;8813;54.444;18.446;2022-12-18T02:35:02;53.17;;;24.60;;
17390;SDS011;8813;54.444;18.446;2022-12-18T02:37:30;46.57;;;22.97;;
17390;SDS011;8813;54.444;18.446;2022-12-18T02:39:57;49.23;;;23.07;;
17390;SDS011;8813;54.444;18.446;2022-12-18T02:42:25;48.20;;;20.37;;
17390;SDS011;8813;54.444;18.446;2022-12-18T02:44:54;44.93;;;20.77;;
17390;SDS011;8813;54.444;18.446;2022-12-18T02:47:21;41.77;;;21.70;;
17390;SDS011;8813;54.444;18.446;2022-12-18T02:49:52;43.73;;;19.37;;
17390;SDS011;8813;54.444;18.446;2022-12-18T02:52:25;43.97;;;20.60;;
17390;SDS011;8813;54.444;18.446;2022-12-18T02:54:57;48.40;;;21.37;;
17390;SDS011;8813;54.444;18.446;2022-12-18T02:57:31;52.10;;;24.37;;
17390;SDS011;8813;54.444;18.446;2022-12-18T03:00:03;50.67;;;23.27;;
17390;SDS011;8813;54.444;18.446;2022-12-18T03:02:34;54.43;;;24.67;;
17390;SDS011;8813;54.444;18.446;2022-12-18T03:05:05;43.17;;;21.77;;
17390;SDS011;8813;54.444;18.446;2022-12-18T03:07:39;45.07;;;20.97;;
17390;SDS011;8813;54.444;18.446;2022-12-18T03:10:09;45.03;;;20.80;;
17390;SDS011;8813;54.444;18.446;2022-12-18T03:12:40;41.57;;;18.13;;
17390;SDS011;8813;54.444;18.446;2022-12-18T03:15:12;46.43;;;23.47;;
17390;SDS011;8813;54.444;18.446;2022-12-18T03:17:41;47.73;;;21.90;;
17390;SDS011;8813;54.444;18.446;2022-12-18T03:20:13;58.30;;;24.23;;
17390;SDS011;8813;54.444;18.446;2022-12-18T03:22:41;46.37;;;22.03;;
17390;SDS011;8813;54.444;18.446;2022-12-18T03:25:10;41.43;;;20.37;;
17390;SDS011;8813;54.444;18.446;2022-12-18T03:27:38;44.73;;;21.60;;
17390;SDS011;8813;54.444;18.446;2022-12-18T03:30:11;43.97;;;20.90;;
17390;SDS011;8813;54.444;18.446;2022-12-18T03:32:39;42.37;;;19.97;;
17390;SDS011;8813;54.444;18.446;2022-12-18T03:35:10;41.07;;;18.23;;
17390;SDS011;8813;54.444;18.446;2022-12-18T03:37:38;35.47;;;18.83;;
17390;SDS011;8813;54.444;18.446;2022-12-18T03:40:05;40.77;;;18.93;;
17390;SDS011;8813;54.444;18.446;2022-12-18T03:42:35;42.70;;;18.47;;
17390;SDS011;8813;54.444;18.446;2022-12-18T03:45:06;38.43;;;17.57;;
17390;SDS011;8813;54.444;18.446;2022-12-18T03:47:39;34.43;;;18.03;;
17390;SDS011;8813;54.444;18.446;2022-12-18T03:50:10;40.60;;;17.90;;
17390;SDS011;8813;54.444;18.446;2022-12-18T03:52:40;36.47;;;16.80;;
17390;SDS011;8813;54.444;18.446;2022-12-18T03:55:10;33.40;;;16.67;;
17390;SDS011;8813;54.444;18.446;2022-12-18T03:57:37;33.80;;;16.90;;
17390;SDS011;8813;54.444;18.446;2022-12-18T04:00:05;26.43;;;14.70;;
17390;SDS011;8813;54.444;18.446;2022-12-18T04:02:35;32.63;;;16.43;;
17390;SDS011;8813;54.444;18.446;2022-12-18T04:05:04;28.17;;;14.70;;
17390;SDS011;8813;54.444;18.446;2022-12-18T04:07:32;30.30;;;15.13;;
17390;SDS011;8813;54.444;18.446;2022-12-18T04:09:59;27.73;;;14.87;;
17390;SDS011;8813;54.444;18.446;2022-12-18T04:12:28;29.80;;;13.97;;
17390;SDS011;8813;54.444;18.446;2022-12-18T04:14:55;28.00;;;14.00;;
17390;SDS011;8813;54.444;18.446;2022-12-18T04:17:22;26.93;;;13.60;;
17390;SDS011;8813;54.444;18.446;2022-12-18T04:19:51;24.63;;;13.93;;
17390;SDS011;8813;54.444;18.446;2022-12-18T04:22:18;27.90;;;13.60;;
17390;SDS011;8813;54.444;18.446;2022-12-18T04:24:45;23.47;;;12.73;;
17390;SDS011;8813;54.444;18.446;2022-12-18T04:27:12;26.77;;;12.97;;
17390;SDS011;8813;54.444;18.446;2022-12-18T04:29:39;23.37;;;12.63;;
17390;SDS011;8813;54.444;18.446;2022-12-18T04:32:06;24.07;;;14.07;;
17390;SDS011;8813;54.444;18.446;2022-12-18T04:34:33;29.07;;;13.00;;
17390;SDS011;8813;54.444;18.446;2022-12-18T04:37:02;19.80;;;13.00;;
17390;SDS011;8813;54.444;18.446;2022-12-18T04:39:29;24.03;;;13.10;;
17390;SDS011;8813;54.444;18.446;2022-12-18T04:41:56;25.60;;;14.30;;
17390;SDS011;8813;54.444;18.446;2022-12-18T04:44:23;24.00;;;13.10;;
17390;SDS011;8813;54.444;18.446;2022-12-18T04:46:50;25.43;;;13.23;;
17390;SDS011;8813;54.444;18.446;2022-12-18T04:49:17;22.83;;;14.10;;
17390;SDS011;8813;54.444;18.446;2022-12-18T04:51:44;24.40;;;12.83;;
17390;SDS011;8813;54.444;18.446;2022-12-18T04:54:12;27.17;;;13.83;;
17390;SDS011;8813;54.444;18.446;2022-12-18T04:56:39;19.10;;;12.27;;
17390;SDS011;8813;54.444;18.446;2022-12-18T04:59:06;20.60;;;12.87;;
17390;SDS011;8813;54.444;18.446;2022-12-18T05:01:33;65.93;;;27.87;;
17390;SDS011;8813;54.444;18.446;2022-12-18T05:03:59;64.00;;;29.37;;
17390;SDS011;8813;54.444;18.446;2022-12-18T05:06:26;48.70;;;23.97;;
17390;SDS011;8813;54.444;18.446;2022-12-18T05:08:53;34.60;;;17.03;;
17390;SDS011;8813;54.444;18.446;2022-12-18T05:11:21;37.53;;;20.20;;
17390;SDS011;8813;54.444;18.446;2022-12-18T05:13:49;27.43;;;15.63;;
17390;SDS011;8813;54.444;18.446;2022-12-18T05:16:16;21.93;;;13.33;;
17390;SDS011;8813;54.444;18.446;2022-12-18T05:18:42;23.97;;;13.00;;
17390;SDS011;8813;54.444;18.446;2022-12-18T05:21:09;23.43;;;12.87;;
17390;SDS011;8813;54.444;18.446;2022-12-18T05:23:36;23.47;;;12.63;;
17390;SDS011;8813;54.444;18.446;2022-12-18T05:26:04;22.23;;;13.40;;
17390;SDS011;8813;54.444;18.446;2022-12-18T05:28:33;19.57;;;11.60;;
17390;SDS011;8813;54.444;18.446;2022-12-18T05:31:02;23.20;;;13.27;;
17390;SDS011;8813;54.444;18.446;2022-12-18T05:33:30;23.73;;;12.27;;
17390;SDS011;8813;54.444;18.446;2022-12-18T05:35:58;19.23;;;13.70;;
17390;SDS011;8813;54.444;18.446;2022-12-18T05:38:26;22.57;;;13.23;;
17390;SDS011;8813;54.444;18.446;2022-12-18T05:40:53;20.07;;;13.03;;
17390;SDS011;8813;54.444;18.446;2022-12-18T05:43:21;21.43;;;13.83;;
17390;SDS011;8813;54.444;18.446;2022-12-18T05:45:50;22.43;;;12.10;;
17390;SDS011;8813;54.444;18.446;2022-12-18T05:48:17;20.50;;;12.33;;
17390;SDS011;8813;54.444;18.446;2022-12-18T05:50:45;25.93;;;12.00;;
17390;SDS011;8813;54.444;18.446;2022-12-18T05:53:13;20.07;;;12.33;;
17390;SDS011;8813;54.444;18.446;2022-12-18T05:55:41;25.27;;;14.77;;
17390;SDS011;8813;54.444;18.446;2022-12-18T05:58:09;31.70;;;17.47;;
17390;SDS011;8813;54.444;18.446;2022-12-18T06:00:38;22.93;;;13.17;;
17390;SDS011;8813;54.444;18.446;2022-12-18T06:03:08;22.00;;;14.40;;
17390;SDS011;8813;54.444;18.446;2022-12-18T06:05:36;23.87;;;14.53;;
17390;SDS011;8813;54.444;18.446;2022-12-18T06:08:03;25.70;;;15.27;;
17390;SDS011;8813;54.444;18.446;2022-12-18T06:10:31;24.73;;;13.47;;
17390;SDS011;8813;54.444;18.446;2022-12-18T06:12:58;33.20;;;16.53;;
17390;SDS011;8813;54.444;18.446;2022-12-18T06:15:24;30.53;;;14.63;;
17390;SDS011;8813;54.444;18.446;2022-12-18T06:17:51;30.53;;;16.90;;
17390;SDS011;8813;54.444;18.446;2022-12-18T06:20:20;38.93;;;20.47;;
17390;SDS011;8813;54.444;18.446;2022-12-18T06:22:47;34.03;;;18.70;;
17390;SDS011;8813;54.444;18.446;2022-12-18T06:25:14;32.23;;;19.60;;
17390;SDS011;8813;54.444;18.446;2022-12-18T06:27:41;37.93;;;21.13;;
17390;SDS011;8813;54.444;18.446;2022-12-18T06:30:08;37.77;;;20.30;;
17390;SDS011;8813;54.444;18.446;2022-12-18T06:32:36;32.60;;;18.97;;
17390;SDS011;8813;54.444;18.446;2022-12-18T06:35:03;30.50;;;16.70;;
17390;SDS011;8813;54.444;18.446;2022-12-18T06:37:32;29.93;;;17.53;;
17390;SDS011;8813;54.444;18.446;2022-12-18T06:39:59;19.27;;;13.40;;
17390;SDS011;8813;54.444;18.446;2022-12-18T06:42:26;26.83;;;13.63;;
17390;SDS011;8813;54.444;18.446;2022-12-18T06:44:53;24.80;;;13.83;;
17390;SDS011;8813;54.444;18.446;2022-12-18T06:47:20;25.77;;;14.17;;
17390;SDS011;8813;54.444;18.446;2022-12-18T06:49:46;31.63;;;17.67;;
17390;SDS011;8813;54.444;18.446;2022-12-18T06:52:13;28.33;;;15.40;;
17390;SDS011;8813;54.444;18.446;2022-12-18T06:54:44;21.83;;;14.40;;
17390;SDS011;8813;54.444;18.446;2022-12-18T06:57:11;23.80;;;14.00;;
17390;SDS011;8813;54.444;18.446;2022-12-18T06:59:38;21.90;;;12.57;;
17390;SDS011;8813;54.444;18.446;2022-12-18T07:02:05;28.90;;;13.83;;
17390;SDS011;8813;54.444;18.446;2022-12-18T07:04:32;26.73;;;13.63;;
17390;SDS011;8813;54.444;18.446;2022-12-18T07:06:58;23.60;;;13.07;;
17390;SDS011;8813;54.444;18.446;2022-12-18T07:09:25;23.63;;;13.30;;
17390;SDS011;8813;54.444;18.446;2022-12-18T07:11:53;27.53;;;14.53;;
17390;SDS011;8813;54.444;18.446;2022-12-18T07:14:20;27.43;;;14.43;;
17390;SDS011;8813;54.444;18.446;2022-12-18T07:16:47;25.17;;;14.77;;
17390;SDS011;8813;54.444;18.446;2022-12-18T07:19:14;27.70;;;15.57;;
17390;SDS011;8813;54.444;18.446;2022-12-18T07:21:41;24.17;;;15.07;;
17390;SDS011;8813;54.444;18.446;2022-12-18T07:24:08;39.67;;;17.87;;
17390;SDS011;8813;54.444;18.446;2022-12-18T07:26:35;32.03;;;15.60;;
17390;SDS011;8813;54.444;18.446;2022-12-18T07:29:03;28.20;;;15.27;;
17390;SDS011;8813;54.444;18.446;2022-12-18T07:31:30;25.37;;;14.57;;
17390;SDS011;8813;54.444;18.446;2022-12-18T07:33:57;29.20;;;15.93;;
17390;SDS011;8813;54.444;18.446;2022-12-18T07:36:24;24.60;;;14.07;;
17390;SDS011;8813;54.444;18.446;2022-12-18T07:38:51;23.73;;;14.23;;
17390;SDS011;8813;54.444;18.446;2022-12-18T07:41:18;22.80;;;13.57;;
17390;SDS011;8813;54.444;18.446;2022-12-18T07:43:46;26.30;;;14.83;;
17390;SDS011;8813;54.444;18.446;2022-12-18T07:46:15;28.27;;;14.93;;
17390;SDS011;8813;54.444;18.446;2022-12-18T07:48:42;31.07;;;17.00;;
17390;SDS011;8813;54.444;18.446;2022-12-18T07:51:09;40.93;;;22.53;;
17390;SDS011;8813;54.444;18.446;2022-12-18T07:53:36;43.57;;;22.90;;
17390;SDS011;8813;54.444;18.446;2022-12-18T07:56:04;35.57;;;20.40;;
17390;SDS011;8813;54.444;18.446;2022-12-18T07:58:32;36.30;;;19.47;;
17390;SDS011;8813;54.444;18.446;2022-12-18T08:01:02;34.80;;;17.53;;
17390;SDS011;8813;54.444;18.446;2022-12-18T08:03:31;28.13;;;17.07;;
17390;SDS011;8813;54.444;18.446;2022-12-18T08:05:59;34.70;;;20.80;;
17390;SDS011;8813;54.444;18.446;2022-12-18T08:08:26;31.07;;;17.97;;
17390;SDS011;8813;54.444;18.446;2022-12-18T08:10:53;25.87;;;16.90;;
17390;SDS011;8813;54.444;18.446;2022-12-18T08:13:20;42.30;;;23.20;;
17390;SDS011;8813;54.444;18.446;2022-12-18T08:15:54;43.40;;;24.27;;
17390;SDS011;8813;54.444;18.446;2022-12-18T08:18:22;41.70;;;23.67;;
17390;SDS011;8813;54.444;18.446;2022-12-18T08:20:50;40.10;;;22.67;;
17390;SDS011;8813;54.444;18.446;2022-12-18T08:23:17;39.50;;;22.00;;
17390;SDS011;8813;54.444;18.446;2022-12-18T08:25:44;39.30;;;22.10;;
17390;SDS011;8813;54.444;18.446;2022-12-18T08:28:11;39.40;;;21.80;;
17390;SDS011;8813;54.444;18.446;2022-12-18T08:30:38;41.93;;;23.03;;
17390;SDS011;8813;54.444;18.446;2022-12-18T08:33:05;38.63;;;21.53;;
17390;SDS011;8813;54.444;18.446;2022-12-18T08:35:34;35.07;;;23.30;;
17390;SDS011;8813;54.444;18.446;2022-12-18T08:38:03;41.43;;;25.90;;
17390;SDS011;8813;54.444;18.446;2022-12-18T08:40:30;45.03;;;25.97;;
17390;SDS011;8813;54.444;18.446;2022-12-18T08:42:56;39.37;;;22.73;;
17390;SDS011;8813;54.444;18.446;2022-12-18T08:45:40;41.80;;;22.43;;
17390;SDS011;8813;54.444;18.446;2022-12-18T08:48:07;50.43;;;26.83;;
17390;SDS011;8813;54.444;18.446;2022-12-18T08:50:34;59.43;;;30.30;;
17390;SDS011;8813;54.444;18.446;2022-12-18T08:53:03;58.53;;;29.40;;
17390;SDS011;8813;54.444;18.446;2022-12-18T08:55:31;49.27;;;24.73;;
17390;SDS011;8813;54.444;18.446;2022-12-18T08:57:58;44.40;;;24.10;;
17390;SDS011;8813;54.444;18.446;2022-12-18T09:00:25;44.53;;;22.90;;
17390;SDS011;8813;54.444;18.446;2022-12-18T09:02:52;38.90;;;22.60;;
17390;SDS011;8813;54.444;18.446;2022-12-18T09:05:19;37.23;;;22.37;;
17390;SDS011;8813;54.444;18.446;2022-12-18T09:07:46;42.80;;;25.90;;
17390;SDS011;8813;54.444;18.446;2022-12-18T09:10:15;44.20;;;24.37;;
17390;SDS011;8813;54.444;18.446;2022-12-18T09:12:44;36.57;;;22.43;;
17390;SDS011;8813;54.444;18.446;2022-12-18T09:15:11;40.03;;;22.37;;
17390;SDS011;8813;54.444;18.446;2022-12-18T09:17:38;40.77;;;22.93;;
17390;SDS011;8813;54.444;18.446;2022-12-18T09:20:05;38.33;;;21.67;;
17390;SDS011;8813;54.444;18.446;2022-12-18T09:22:34;40.00;;;21.77;;
17390;SDS011;8813;54.444;18.446;2022-12-18T09:25:01;44.47;;;22.70;;
17390;SDS011;8813;54.444;18.446;2022-12-18T09:27:29;40.27;;;21.43;;
17390;SDS011;8813;54.444;18.446;2022-12-18T09:29:57;37.27;;;21.00;;
17390;SDS011;8813;54.444;18.446;2022-12-18T09:32:24;36.83;;;21.73;;
17390;SDS011;8813;54.444;18.446;2022-12-18T09:34:51;33.17;;;19.23;;
17390;SDS011;8813;54.444;18.446;2022-12-18T09:37:23;30.57;;;16.93;;
17390;SDS011;8813;54.444;18.446;2022-12-18T09:39:50;25.50;;;15.77;;
17390;SDS011;8813;54.444;18.446;2022-12-18T09:42:19;27.23;;;15.50;;
17390;SDS011;8813;54.444;18.446;2022-12-18T09:44:50;26.63;;;14.77;;
17390;SDS011;8813;54.444;18.446;2022-12-18T09:47:19;24.90;;;14.50;;
17390;SDS011;8813;54.444;18.446;2022-12-18T09:49:51;26.60;;;14.83;;
17390;SDS011;8813;54.444;18.446;2022-12-18T09:52:21;28.67;;;16.23;;
17390;SDS011;8813;54.444;18.446;2022-12-18T09:54:53;27.83;;;16.27;;
17390;SDS011;8813;54.444;18.446;2022-12-18T09:57:22;30.17;;;17.17;;
17390;SDS011;8813;54.444;18.446;2022-12-18T09:59:56;23.50;;;14.93;;
17390;SDS011;8813;54.444;18.446;2022-12-18T10:02:25;25.30;;;14.53;;
17390;SDS011;8813;54.444;18.446;2022-12-18T10:04:56;25.77;;;14.87;;
17390;SDS011;8813;54.444;18.446;2022-12-18T10:07:32;29.67;;;15.73;;
17390;SDS011;8813;54.444;18.446;2022-12-18T10:10:08;30.17;;;15.23;;
17390;SDS011;8813;54.444;18.446;2022-12-18T10:12:42;26.43;;;14.37;;
17390;SDS011;8813;54.444;18.446;2022-12-18T10:15:16;27.43;;;14.27;;
17390;SDS011;8813;54.444;18.446;2022-12-18T10:17:49;24.80;;;13.10;;
17390;SDS011;8813;54.444;18.446;2022-12-18T10:20:21;27.33;;;15.03;;
17390;SDS011;8813;54.444;18.446;2022-12-18T10:22:53;20.67;;;12.87;;
17390;SDS011;8813;54.444;18.446;2022-12-18T10:25:25;21.47;;;12.87;;
17390;SDS011;8813;54.444;18.446;2022-12-18T10:27:54;23.57;;;13.57;;
17390;SDS011;8813;54.444;18.446;2022-12-18T10:30:25;22.63;;;13.77;;
17390;SDS011;8813;54.444;18.446;2022-12-18T10:32:53;20.87;;;13.67;;
17390;SDS011;8813;54.444;18.446;2022-12-18T10:35:22;24.87;;;13.97;;
17390;SDS011;8813;54.444;18.446;2022-12-18T10:38:01;26.37;;;14.27;;
17390;SDS011;8813;54.444;18.446;2022-12-18T10:40:30;23.17;;;14.80;;
17390;SDS011;8813;54.444;18.446;2022-12-18T10:43:10;25.60;;;14.60;;
17390;SDS011;8813;54.444;18.446;2022-12-18T10:45:41;28.83;;;15.03;;
17390;SDS011;8813;54.444;18.446;2022-12-18T10:48:17;22.30;;;14.60;;
17390;SDS011;8813;54.444;18.446;2022-12-18T10:50:46;22.53;;;14.57;;
17390;SDS011;8813;54.444;18.446;2022-12-18T10:53:17;20.83;;;13.50;;
17390;SDS011;8813;54.444;18.446;2022-12-18T10:55:46;19.83;;;13.30;;
17390;SDS011;8813;54.444;18.446;2022-12-18T10:58:16;20.17;;;13.80;;
17390;SDS011;8813;54.444;18.446;2022-12-18T11:00:50;19.90;;;13.97;;
17390;SDS011;8813;54.444;18.446;2022-12-18T11:03:30;20.58;;;12.88;;
17390;SDS011;8813;54.444;18.446;2022-12-18T11:06:07;21.45;;;13.48;;
17390;SDS011;8813;54.444;18.446;2022-12-18T11:08:36;17.92;;;12.82;;
17390;SDS011;8813;54.444;18.446;2022-12-18T11:11:03;21.92;;;12.98;;
17390;SDS011;8813;54.444;18.446;2022-12-18T11:13:33;18.58;;;12.93;;
17390;SDS011;8813;54.444;18.446;2022-12-18T11:16:02;19.42;;;13.10;;
17390;SDS011;8813;54.444;18.446;2022-12-18T11:18:29;17.10;;;12.15;;
17390;SDS011;8813;54.444;18.446;2022-12-18T11:20:58;20.23;;;13.80;;
17390;SDS011;8813;54.444;18.446;2022-12-18T11:23:26;19.15;;;12.27;;
17390;SDS011;8813;54.444;18.446;2022-12-18T11:25:55;18.58;;;11.85;;
17390;SDS011;8813;54.444;18.446;2022-12-18T11:28:27;14.68;;;10.82;;
17390;SDS011;8813;54.444;18.446;2022-12-18T11:31:09;14.57;;;10.65;;
17390;SDS011;8813;54.444;18.446;2022-12-18T11:33:42;16.88;;;10.68;;
17390;SDS011;8813;54.444;18.446;2022-12-18T11:36:11;7.28;;;4.50;;
17390;SDS011;8813;54.444;18.446;2022-12-18T11:38:39;13.63;;;9.82;;
17390;SDS011;8813;54.444;18.446;2022-12-18T11:41:21;16.60;;;10.60;;
17390;SDS011;8813;54.444;18.446;2022-12-18T11:44:13;13.35;;;9.77;;
17390;SDS011;8813;54.444;18.446;2022-12-18T11:46:45;14.18;;;10.25;;
17390;SDS011;8813;54.444;18.446;2022-12-18T11:49:15;17.25;;;9.48;;
17390;SDS011;8813;54.444;18.446;2022-12-18T11:51:47;11.95;;;8.63;;
17390;SDS011;8813;54.444;18.446;2022-12-18T11:54:16;14.43;;;8.70;;
17390;SDS011;8813;54.444;18.446;2022-12-18T11:56:44;13.68;;;8.80;;
17390;SDS011;8813;54.444;18.446;2022-12-18T11:59:20;13.10;;;9.05;;
17390;SDS011;8813;54.444;18.446;2022-12-18T12:01:58;10.68;;;8.07;;
17390;SDS011;8813;54.444;18.446;2022-12-18T12:04:39;13.45;;;8.98;;
17390;SDS011;8813;54.444;18.446;2022-12-18T12:07:17;12.30;;;8.52;;
17390;SDS011;8813;54.444;18.446;2022-12-18T12:09:51;15.90;;;8.37;;
17390;SDS011;8813;54.444;18.446;2022-12-18T12:12:28;16.10;;;10.37;;
17390;SDS011;8813;54.444;18.446;2022-12-18T12:15:13;13.93;;;9.13;;
17390;SDS011;8813;54.444;18.446;2022-12-18T12:17:51;12.07;;;8.83;;
17390;SDS011;8813;54.444;18.446;2022-12-18T12:20:24;11.93;;;8.17;;
17390;SDS011;8813;54.444;18.446;2022-12-18T12:23:06;14.57;;;8.60;;
17390;SDS011;8813;54.444;18.446;2022-12-18T12:25:41;13.77;;;10.07;;
17390;SDS011;8813;54.444;18.446;2022-12-18T12:28:15;11.90;;;8.03;;
17390;SDS011;8813;54.444;18.446;2022-12-18T12:30:51;13.17;;;8.47;;
17390;SDS011;8813;54.444;18.446;2022-12-18T12:33:27;12.77;;;8.33;;
17390;SDS011;8813;54.444;18.446;2022-12-18T12:36:03;14.40;;;8.30;;
17390;SDS011;8813;54.444;18.446;2022-12-18T12:38:35;14.27;;;9.17;;
17390;SDS011;8813;54.444;18.446;2022-12-18T12:41:05;18.67;;;12.30;;
17390;SDS011;8813;54.444;18.446;2022-12-18T12:43:53;21.40;;;12.00;;
17390;SDS011;8813;54.444;18.446;2022-12-18T12:46:22;20.63;;;11.57;;
17390;SDS011;8813;54.444;18.446;2022-12-18T12:48:52;12.13;;;8.17;;
17390;SDS011;8813;54.444;18.446;2022-12-18T12:51:23;11.53;;;7.70;;
17390;SDS011;8813;54.444;18.446;2022-12-18T12:53:52;22.30;;;12.20;;
17390;SDS011;8813;54.444;18.446;2022-12-18T12:56:19;11.13;;;7.10;;
17390;SDS011;8813;54.444;18.446;2022-12-18T12:58:50;12.40;;;8.33;;
17390;SDS011;8813;54.444;18.446;2022-12-18T13:01:26;9.13;;;6.37;;
17390;SDS011;8813;54.444;18.446;2022-12-18T13:03:58;14.43;;;7.83;;
17390;SDS011;8813;54.444;18.446;2022-12-18T13:06:33;10.77;;;6.53;;
17390;SDS011;8813;54.444;18.446;2022-12-18T13:09:06;11.70;;;6.33;;
17390;SDS011;8813;54.444;18.446;2022-12-18T13:11:36;8.20;;;6.50;;
17390;SDS011;8813;54.444;18.446;2022-12-18T13:14:23;11.20;;;6.83;;
17390;SDS011;8813;54.444;18.446;2022-12-18T13:16:56;10.20;;;7.73;;
17390;SDS011;8813;54.444;18.446;2022-12-18T13:19:52;14.00;;;7.50;;
17390;SDS011;8813;54.444;18.446;2022-12-18T13:22:30;9.23;;;7.23;;
17390;SDS011;8813;54.444;18.446;2022-12-18T13:24:58;10.87;;;6.90;;
17390;SDS011;8813;54.444;18.446;2022-12-18T13:39:10;8.60;;;6.70;;
17390;SDS011;8813;54.444;18.446;2022-12-18T13:41:42;12.00;;;7.50;;
17390;SDS011;8813;54.444;18.446;2022-12-18T13:44:10;11.13;;;7.57;;
17390;SDS011;8813;54.444;18.446;2022-12-18T13:46:42;11.87;;;8.13;;
17390;SDS011;8813;54.444;18.446;2022-12-18T13:49:16;11.33;;;7.27;;
17390;SDS011;8813;54.444;18.446;2022-12-18T13:51:50;14.40;;;8.00;;
17390;SDS011;8813;54.444;18.446;2022-12-18T13:54:18;13.13;;;8.50;;
17390;SDS011;8813;54.444;18.446;2022-12-18T13:56:47;23.27;;;12.87;;
17390;SDS011;8813;54.444;18.446;2022-12-18T13:59:15;65.57;;;35.43;;
17390;SDS011;8813;54.444;18.446;2022-12-18T14:01:46;53.97;;;30.70;;
17390;SDS011;8813;54.444;18.446;2022-12-18T14:04:22;26.87;;;14.90;;
17390;SDS011;8813;54.444;18.446;2022-12-18T14:06:55;25.37;;;15.50;;
17390;SDS011;8813;54.444;18.446;2022-12-18T14:09:25;16.87;;;11.60;;
17390;SDS011;8813;54.444;18.446;2022-12-18T14:11:54;16.83;;;11.83;;
17390;SDS011;8813;54.444;18.446;2022-12-18T14:14:43;13.13;;;7.73;;
17390;SDS011;8813;54.444;18.446;2022-12-18T14:17:11;11.73;;;8.73;;
17390;SDS011;8813;54.444;18.446;2022-12-18T14:19:41;11.40;;;8.30;;
17390;SDS011;8813;54.444;18.446;2022-12-18T14:22:13;13.43;;;7.60;;
17390;SDS011;8813;54.444;18.446;2022-12-18T14:24:41;10.87;;;7.43;;
17390;SDS011;8813;54.444;18.446;2022-12-18T14:27:12;14.20;;;7.50;;
17390;SDS011;8813;54.444;18.446;2022-12-18T14:29:46;10.87;;;7.13;;
17390;SDS011;8813;54.444;18.446;2022-12-18T14:32:14;11.50;;;7.67;;
17390;SDS011;8813;54.444;18.446;2022-12-18T14:34:42;11.33;;;7.97;;
17390;SDS011;8813;54.444;18.446;2022-12-18T14:37:10;14.97;;;8.30;;
17390;SDS011;8813;54.444;18.446;2022-12-18T14:39:39;12.27;;;7.77;;
17390;SDS011;8813;54.444;18.446;2022-12-18T14:42:09;11.90;;;8.13;;
17390;SDS011;8813;54.444;18.446;2022-12-18T14:44:37;16.33;;;8.67;;
17390;SDS011;8813;54.444;18.446;2022-12-18T14:47:04;16.57;;;9.87;;
17390;SDS011;8813;54.444;18.446;2022-12-18T14:49:32;15.83;;;8.83;;
17390;SDS011;8813;54.444;18.446;2022-12-18T14:52:02;12.13;;;7.70;;